Time;durP1;ratioP1;P1;durP2;ratioP2;P2;SDS_P1;SDS_P2;PMS_P1;PMS_P2;Temp;Humidity;BMP_temperature;BMP_pressure;BME280_temperature;BME280_humidity;BME280_pressure;Samples;Min_cycle;Max_cycle;Signal;HPM_P1;HPM_P2
2023/04/18 00:01:58;;;;;;;24.18;13.30;;;;;;;8.65;83.98;101108.50;1773758;80;25420;-51
2023/04/18 00:04:24;;;;;;;25.68;13.62;;;;;;;8.65;84.19;101105.80;1774892;80;34732;-50
2023/04/18 00:06:52;;;;;;;25.90;13.75;;;;;;;8.63;84.28;101110.12;1761790;80;25627;-50
2023/04/18 00:09:20;;;;;;;26.33;13.70;;;;;;;8.62;84.35;101109.08;1774810;80;28064;-53
2023/04/18 00:11:46;;;;;;;27.73;15.55;;;;;;;8.59;84.52;101104.47;1773373;80;25531;-52
2023/04/18 00:14:12;;;;;;;22.98;13.38;;;;;;;8.56;84.56;101113.14;1773569;80;25679;-51
2023/04/18 00:16:38;;;;;;;22.75;12.33;;;;;;;8.55;84.63;101103.97;1774412;80;25560;-50
2023/04/18 00:19:07;;;;;;;21.85;11.65;;;;;;;8.54;84.70;101109.09;1774685;80;25386;-51
2023/04/18 00:21:36;;;;;;;23.70;12.65;;;;;;;8.52;84.75;101109.36;1774487;80;28152;-50
2023/04/18 00:24:07;;;;;;;24.82;12.75;;;;;;;8.51;84.87;101109.63;1774204;80;33099;-50
2023/04/18 00:26:34;;;;;;;23.52;12.20;;;;;;;8.50;84.89;101106.69;1774033;80;25695;-53
2023/04/18 00:29:03;;;;;;;26.27;13.58;;;;;;;8.50;85.00;101108.03;1761173;81;25592;-49
2023/04/18 00:31:30;;;;;;;23.50;12.45;;;;;;;8.47;85.16;101103.98;1779022;79;25546;-49
2023/04/18 00:33:58;;;;;;;21.00;11.65;;;;;;;8.43;85.01;101106.98;1807040;79;27582;-49
2023/04/18 00:36:24;;;;;;;27.30;13.40;;;;;;;8.41;85.11;101106.39;1806837;79;25424;-50
2023/04/18 00:38:50;;;;;;;24.80;12.88;;;;;;;8.39;85.12;101099.13;1807046;79;25424;-49
2023/04/18 00:41:16;;;;;;;21.85;12.37;;;;;;;8.39;85.29;101110.73;1806987;79;25434;-50
2023/04/18 00:43:42;;;;;;;22.87;12.45;;;;;;;8.37;85.38;101106.13;1807003;79;25561;-50
2023/04/18 00:46:09;;;;;;;23.05;12.15;;;;;;;8.37;85.52;101105.33;1784508;79;27556;-51
2023/04/18 00:48:40;;;;;;;24.10;13.15;;;;;;;8.35;85.49;101105.61;1806927;79;25415;-53
2023/04/18 00:51:10;;;;;;;25.27;12.73;;;;;;;8.33;85.56;101109.13;1784585;79;25553;-50
2023/04/18 00:53:36;;;;;;;;;;;;;;;8.34;85.68;101104.53;1809716;79;25612;-50
2023/04/18 00:56:06;;;;;;;23.87;12.50;;;;;;;8.33;85.85;101108.33;1840036;78;25517;-50
2023/04/18 00:58:34;;;;;;;20.08;11.03;;;;;;;8.31;85.94;101107.25;1807090;79;27518;-51
2023/04/18 01:01:02;;;;;;;;;;;;;;;8.31;85.89;101107.25;1842620;78;25603;-53
2023/04/18 01:03:28;;;;;;;21.33;11.30;;;;;;;8.31;85.98;101105.07;1816495;78;25545;-51
2023/04/18 01:05:56;;;;;;;22.25;12.03;;;;;;;8.31;86.13;101107.77;1806963;79;25565;-50
2023/04/18 01:08:24;;;;;;;21.55;11.40;;;;;;;8.29;86.21;101113.45;1839867;78;25379;-50
2023/04/18 01:10:52;;;;;;;20.27;11.25;;;;;;;8.28;86.21;101109.14;1807029;79;27524;-51
2023/04/18 01:13:20;;;;;;;22.15;11.10;;;;;;;8.29;86.23;101106.72;1839878;78;25868;-51
2023/04/18 01:15:50;;;;;;;23.50;11.68;;;;;;;8.29;86.36;101101.84;1806933;79;25586;-53
2023/04/18 01:18:19;;;;;;;21.25;12.47;;;;;;;8.29;86.28;101105.89;1806950;79;25579;-50
2023/04/18 01:20:51;;;;;;;24.57;12.82;;;;;;;8.29;86.39;101101.33;1802728;79;25609;-51
2023/04/18 01:23:20;;;;;;;21.00;11.25;;;;;;;8.28;86.41;101113.18;1775128;80;27419;-50
2023/04/18 01:25:48;;;;;;;20.25;11.97;;;;;;;8.26;86.43;101105.91;1775122;80;25469;-49
2023/04/18 01:28:21;;;;;;;22.67;12.45;;;;;;;8.27;86.62;101109.41;1775325;80;33292;-50
2023/04/18 01:30:49;;;;;;;22.62;12.23;;;;;;;8.25;86.58;101108.88;1775180;80;25580;-51
2023/04/18 01:33:15;;;;;;;23.35;12.55;;;;;;;8.26;86.74;101108.61;1735486;80;25543;-49
2023/04/18 01:35:42;;;;;;;25.02;12.30;;;;;;;8.26;86.85;101105.91;1740568;82;27491;-50
2023/04/18 01:38:10;;;;;;;26.27;13.10;;;;;;;8.26;86.90;101106.43;1740377;82;25407;-49
2023/04/18 01:40:37;;;;;;;22.75;12.80;;;;;;;8.25;86.75;101104.28;1740532;82;25611;-51
2023/04/18 01:43:03;;;;;;;23.92;12.78;;;;;;;8.26;86.93;101098.34;1740459;82;35155;-49
2023/04/18 01:45:30;;;;;;;21.68;12.82;;;;;;;8.24;87.02;101102.69;1740442;82;25612;-49
2023/04/18 01:47:56;;;;;;;21.45;13.13;;;;;;;8.24;87.07;101101.34;1740395;82;27543;-49
2023/04/18 01:50:25;;;;;;;25.32;13.53;;;;;;;8.23;87.14;101104.55;1740383;82;25560;-51
2023/04/18 01:52:51;;;;;;;24.52;12.70;;;;;;;8.23;87.25;101101.06;1740463;82;25717;-51
2023/04/18 01:55:17;;;;;;;20.10;12.43;;;;;;;8.22;87.30;101103.48;1740411;82;25500;-49
2023/04/18 01:57:43;;;;;;;24.85;12.73;;;;;;;8.20;87.30;101103.75;1765535;80;25404;-50
2023/04/18 02:00:14;;;;;;;22.75;11.57;;;;;;;8.21;87.42;101100.53;1747200;82;27492;-49
2023/04/18 02:02:40;;;;;;;23.47;13.20;;;;;;;8.23;87.58;101103.20;1747792;82;25636;-50
2023/04/18 02:05:09;;;;;;;23.45;13.60;;;;;;;8.23;87.57;101100.52;1764927;80;25566;-53
2023/04/18 02:07:36;;;;;;;24.95;13.35;;;;;;;8.24;87.64;101093.25;1764838;81;25595;-49
2023/04/18 02:10:06;;;;;;;26.40;13.55;;;;;;;8.23;87.73;101095.13;1741407;81;25438;-53
2023/04/18 02:12:33;;;;;;;25.08;12.78;;;;;;;8.25;87.86;101094.05;1743317;81;27520;-50
2023/04/18 02:15:00;;;;;;;27.15;14.87;;;;;;;8.24;87.73;101085.17;1764793;81;27283;-50
2023/04/18 02:17:29;;;;;;;26.35;13.78;;;;;;;8.25;87.74;101087.31;1752298;80;25447;-52
2023/04/18 02:19:56;;;;;;;25.88;13.85;;;;;;;8.24;88.04;101085.17;1763462;81;25556;-50
2023/04/18 02:22:23;;;;;;;29.18;15.23;;;;;;;8.22;87.90;101085.44;1741261;81;25426;-49
2023/04/18 02:24:52;;;;;;;24.65;13.88;;;;;;;8.23;88.06;101084.89;1764884;81;27555;-49
2023/04/18 02:27:18;;;;;;;24.43;13.03;;;;;;;8.22;88.27;101078.70;1741113;81;25422;-49
2023/04/18 02:29:45;;;;;;;27.27;14.68;;;;;;;8.23;88.29;101086.23;1764767;81;25547;-49
2023/04/18 02:32:13;;;;;;;27.93;13.88;;;;;;;8.23;88.30;101078.16;1771923;79;25585;-49
2023/04/18 02:34:39;;;;;;;25.15;13.78;;;;;;;8.24;88.50;101090.56;1773454;79;25555;-50
2023/04/18 02:37:07;;;;;;;25.37;13.93;;;;;;;8.26;88.51;101084.34;1774890;80;27465;-52
2023/04/18 02:39:33;;;;;;;25.43;13.75;;;;;;;8.26;88.44;101087.56;1772888;79;25561;-50
2023/04/18 02:42:00;;;;;;;23.87;14.15;;;;;;;8.26;88.55;101087.05;1774996;80;25600;-52
2023/04/18 02:44:31;;;;;;;24.95;13.25;;;;;;;8.25;88.54;101081.92;1806863;79;25650;-53
2023/04/18 02:46:57;;;;;;;27.60;13.10;;;;;;;8.25;88.56;101083.27;1775135;80;25554;-50
2023/04/18 02:49:23;;;;;;;28.17;13.85;;;;;;;8.21;88.67;101083.81;1806958;79;27489;-51
2023/04/18 02:51:56;;;;;;;25.30;13.65;;;;;;;8.21;88.85;101089.20;1775006;80;25373;-50
2023/04/18 02:54:25;;;;;;;28.17;14.00;;;;;;;8.21;88.76;101085.71;1807194;79;25563;-52
2023/04/18 02:56:55;;;;;;;28.30;14.20;;;;;;;8.19;88.82;101091.37;1775381;80;34765;-50
2023/04/18 02:59:22;;;;;;;25.12;13.88;;;;;;;8.19;89.02;101094.06;1775304;80;25457;-50
2023/04/18 03:01:48;;;;;;;27.27;14.68;;;;;;;8.20;89.23;101088.92;1775231;80;28114;-50
2023/04/18 03:04:14;;;;;;;27.67;15.03;;;;;;;8.19;89.30;101094.61;1775174;80;25463;-50
2023/04/18 03:06:40;;;;;;;27.22;15.00;;;;;;;8.19;89.20;101096.77;1807055;79;25415;-52
2023/04/18 03:09:09;;;;;;;25.35;12.98;;;;;;;8.19;89.21;101101.36;1775274;80;25529;-50
2023/04/18 03:11:39;;;;;;;26.27;13.88;;;;;;;8.19;89.29;101093.27;1743390;80;25575;-50
2023/04/18 03:14:09;;;;;;;25.35;13.98;;;;;;;8.20;89.17;101101.60;1775437;80;32783;-53
2023/04/18 03:16:37;;;;;;;23.35;13.83;;;;;;;8.19;89.18;101101.36;1742989;80;25865;-51
2023/04/18 03:19:03;;;;;;;28.83;14.23;;;;;;;8.20;89.17;101111.03;1775393;80;25561;-51
2023/04/18 03:21:29;;;;;;;24.32;14.30;;;;;;;8.18;89.13;101103.22;1742589;80;25478;-50
2023/04/18 03:23:55;;;;;;;25.40;14.30;;;;;;;8.17;89.10;101098.09;1775292;80;32738;-52
2023/04/18 03:26:26;;;;;;;27.82;14.03;;;;;;;8.18;89.13;101099.73;1742548;80;27727;-50
2023/04/18 03:28:55;;;;;;;26.10;14.65;;;;;;;8.19;89.23;101101.36;1775223;80;26082;-53
2023/04/18 03:31:26;;;;;;;26.95;14.63;;;;;;;8.18;89.19;101111.30;1775289;80;25466;-52
2023/04/18 03:33:56;;;;;;;25.88;14.45;;;;;;;8.17;89.14;101102.97;1775065;80;25532;-53
2023/04/18 03:36:24;;;;;;;;;;;;;;;8.17;89.18;101109.70;1777959;80;25604;-53
2023/04/18 03:38:54;;;;;;;25.15;14.00;;;;;;;8.20;89.28;101115.08;1774316;79;27540;-50
2023/04/18 03:41:20;;;;;;;27.15;13.70;;;;;;;8.18;89.21;101106.46;1752070;80;25622;-51
2023/04/18 03:43:46;;;;;;;27.70;14.47;;;;;;;8.19;89.22;101107.55;1807055;79;25537;-52
2023/04/18 03:46:16;;;;;;;26.65;15.00;;;;;;;8.18;89.18;101112.66;1775157;80;25603;-53
2023/04/18 03:48:42;;;;;;;28.85;14.40;;;;;;;8.17;89.21;101105.66;1807121;79;25360;-51
2023/04/18 03:51:14;;;;;;;28.77;14.93;;;;;;;8.18;89.32;101105.12;1775180;80;27536;-51
2023/04/18 03:53:40;;;;;;;27.80;15.08;;;;;;;8.17;89.25;101107.02;1806863;79;25526;-49
2023/04/18 03:56:08;;;;;;;29.52;15.55;;;;;;;8.17;89.40;101111.05;1775179;80;25389;-49
2023/04/18 03:58:35;;;;;;;30.15;14.75;;;;;;;8.18;89.37;101108.61;1808733;79;25478;-49
2023/04/18 04:01:03;;;;;;;27.90;14.98;;;;;;;8.18;89.33;101111.85;1838874;77;25532;-51
2023/04/18 04:03:29;;;;;;;28.45;15.15;;;;;;;8.18;89.39;101116.70;1775215;80;27491;-50
2023/04/18 04:05:57;;;;;;;27.32;14.70;;;;;;;8.19;89.37;101106.75;1806993;79;33085;-50
2023/04/18 04:08:23;;;;;;;27.90;15.18;;;;;;;8.19;89.32;101116.17;1747424;80;25472;-49
2023/04/18 04:10:49;;;;;;;28.32;15.18;;;;;;;8.21;89.46;101108.62;1807111;79;25609;-49
2023/04/18 04:13:16;;;;;;;29.80;15.45;;;;;;;8.21;89.47;101110.77;1775178;80;25448;-49
2023/04/18 04:15:42;;;;;;;29.23;15.75;;;;;;;8.21;89.32;101117.50;1784683;79;27575;-50
2023/04/18 04:18:08;;;;;;;27.48;15.03;;;;;;;8.22;89.37;101124.52;1775070;80;25530;-50
2023/04/18 04:20:34;;;;;;;30.62;15.90;;;;;;;8.22;89.39;101124.52;1775182;80;25580;-50
2023/04/18 04:23:05;;;;;;;29.92;14.90;;;;;;;8.26;89.50;101118.04;1775148;80;25510;-50
2023/04/18 04:25:32;;;;;;;30.15;16.27;;;;;;;8.27;89.55;101118.29;1775321;80;25551;-50
2023/04/18 04:28:00;;;;;;;29.55;14.63;;;;;;;8.31;89.61;101118.55;1775256;80;29581;-51
2023/04/18 04:30:27;;;;;;;27.07;13.95;;;;;;;8.32;89.52;101118.28;1775070;80;27310;-51
2023/04/18 04:32:55;;;;;;;26.57;14.70;;;;;;;8.35;89.50;101120.98;1762825;80;25593;-50
2023/04/18 04:35:22;;;;;;;25.48;15.00;;;;;;;8.38;89.56;101123.94;1741704;82;25691;-50
2023/04/18 04:37:50;;;;;;;28.23;14.73;;;;;;;8.42;89.56;101129.58;1740540;81;25443;-51
2023/04/18 04:40:21;;;;;;;27.80;15.70;;;;;;;8.46;89.51;101124.48;1740524;82;27494;-50
2023/04/18 04:42:48;;;;;;;31.73;15.78;;;;;;;8.48;89.37;101126.36;1740430;82;25420;-52
2023/04/18 04:45:18;;;;;;;28.30;15.45;;;;;;;8.50;89.22;101121.52;1740524;82;29980;-50
2023/04/18 04:47:44;;;;;;;28.70;15.83;;;;;;;8.52;89.23;101127.44;1719683;82;25539;-50
2023/04/18 04:50:14;;;;;;;26.48;14.65;;;;;;;8.55;89.11;101129.04;1743176;82;25636;-50
2023/04/18 04:52:44;;;;;;;28.87;14.70;;;;;;;8.57;89.11;101128.77;1740430;82;27507;-49
2023/04/18 04:55:10;;;;;;;29.12;15.58;;;;;;;8.62;89.11;101132.00;1740411;81;25550;-50
2023/04/18 04:57:36;;;;;;;29.70;15.20;;;;;;;8.65;89.00;101136.81;1740527;82;25383;-50
2023/04/18 05:00:07;;;;;;;31.23;16.02;;;;;;;8.68;88.98;101135.72;1740393;82;35233;-50
2023/04/18 05:02:37;;;;;;;27.37;15.08;;;;;;;8.71;88.93;101137.08;1719393;82;25669;-50
2023/04/18 05:05:08;;;;;;;28.62;15.53;;;;;;;8.75;88.89;101135.43;1744049;82;27548;-49
2023/04/18 05:07:34;;;;;;;27.22;14.87;;;;;;;8.79;88.63;101136.52;1764940;80;25545;-48
2023/04/18 05:10:00;;;;;;;31.12;15.10;;;;;;;8.83;88.64;101137.56;1747674;82;25481;-49
2023/04/18 05:12:26;;;;;;;29.63;16.00;;;;;;;8.88;88.53;101135.39;1747823;82;25545;-49
2023/04/18 05:14:52;;;;;;;26.97;15.05;;;;;;;8.91;88.51;101133.49;1747819;82;25464;-50
2023/04/18 05:17:19;;;;;;;31.23;16.80;;;;;;;8.97;88.46;101135.89;1747826;82;27546;-51
2023/04/18 05:19:47;;;;;;;29.20;14.43;;;;;;;9.07;88.42;101143.66;1747811;82;26176;-53
2023/04/18 05:22:13;;;;;;;28.00;14.95;;;;;;;9.10;88.33;101132.31;1747886;82;25595;-50
2023/04/18 05:24:40;;;;;;;34.60;15.28;;;;;;;9.13;87.96;101133.91;1747780;82;25520;-49
2023/04/18 05:27:09;;;;;;;27.93;15.10;;;;;;;9.18;87.84;101135.78;1765099;80;25616;-50
2023/04/18 05:29:37;;;;;;;29.25;14.98;;;;;;;9.22;87.78;101135.48;1764981;81;26897;-50
2023/04/18 05:32:08;;;;;;;29.87;14.87;;;;;;;9.25;87.53;101136.83;1775567;80;25613;-47
2023/04/18 05:34:36;;;;;;;26.07;14.58;;;;;;;9.29;87.52;101137.32;1756559;80;25539;-52
2023/04/18 05:37:07;;;;;;;30.40;14.40;;;;;;;9.32;87.22;101136.77;1781076;80;25570;-52
2023/04/18 05:39:36;;;;;;;26.95;15.00;;;;;;;9.36;87.07;101138.36;1775570;80;25571;-50
2023/04/18 05:42:05;;;;;;;27.15;15.35;;;;;;;9.38;86.89;101138.91;1740476;82;27618;-50
2023/04/18 05:44:32;;;;;;;27.95;14.68;;;;;;;9.42;86.70;101143.20;1792857;79;32961;-50
2023/04/18 05:46:58;;;;;;;28.45;16.42;;;;;;;9.44;86.62;101141.02;1808740;79;25614;-51
2023/04/18 05:49:27;;;;;;;27.35;14.63;;;;;;;9.48;86.77;101145.59;1736071;82;25552;-51
2023/04/18 05:51:55;;;;;;;27.15;14.93;;;;;;;9.52;86.54;101147.98;1773513;80;25620;-50
2023/04/18 05:54:24;;;;;;;26.40;14.60;;;;;;;9.56;86.17;101151.48;1778166;80;27499;-52
2023/04/18 05:56:56;;;;;;;25.12;14.87;;;;;;;9.57;86.02;101149.02;1747104;82;25568;-51
2023/04/18 05:59:26;;;;;;;22.85;13.22;;;;;;;9.58;85.93;101148.75;1738853;82;25622;-50
2023/04/18 06:01:57;;;;;;;26.20;14.80;;;;;;;9.60;85.79;101148.47;1808719;79;26119;-50
2023/04/18 06:04:23;;;;;;;29.02;14.73;;;;;;;9.62;85.70;101143.59;1808139;79;25601;-49
2023/04/18 06:06:49;;;;;;;29.92;15.03;;;;;;;9.62;85.35;101151.69;1808597;79;27382;-50
2023/04/18 06:09:16;;;;;;;27.35;15.50;;;;;;;9.60;85.07;101151.97;1808609;79;25423;-52
2023/04/18 06:11:42;;;;;;;26.00;14.65;;;;;;;9.60;85.00;101150.62;1808729;79;25386;-49
2023/04/18 06:14:08;;;;;;;26.33;14.25;;;;;;;9.62;85.10;101153.04;1775048;79;25692;-49
2023/04/18 06:16:36;;;;;;;24.87;14.58;;;;;;;9.62;84.96;101153.87;1774727;80;25578;-49
2023/04/18 06:19:04;;;;;;;25.25;14.23;;;;;;;9.62;84.86;101158.44;1808992;79;27561;-49
2023/04/18 06:21:30;;;;;;;29.35;14.68;;;;;;;9.64;84.93;101154.94;1773970;80;25386;-52
2023/04/18 06:23:56;;;;;;;31.20;15.60;;;;;;;9.64;84.59;101154.94;1773435;80;25381;-49
2023/04/18 06:26:23;;;;;;;27.07;14.58;;;;;;;9.63;84.52;101152.77;1773404;80;25523;-50
2023/04/18 06:28:49;;;;;;;26.77;15.10;;;;;;;9.61;84.51;101154.94;1770524;80;25431;-49
2023/04/18 06:31:15;;;;;;;27.65;14.83;;;;;;;9.63;84.50;101152.77;1770278;81;28153;-50
2023/04/18 06:33:42;;;;;;;28.55;14.73;;;;;;;9.64;84.43;101152.23;1792475;77;25578;-50
2023/04/18 06:36:09;;;;;;;30.88;16.40;;;;;;;9.65;84.39;101154.66;1842075;77;25532;-50
2023/04/18 06:38:35;;;;;;;28.65;16.20;;;;;;;9.67;84.43;101157.88;1847354;77;27732;-50
2023/04/18 06:41:01;;;;;;;23.85;14.43;;;;;;;9.68;84.40;101155.98;1775205;80;25444;-50
2023/04/18 06:43:27;;;;;;;24.23;14.13;;;;;;;9.71;84.36;101160.83;1773840;79;27616;-50
2023/04/18 06:45:55;;;;;;;27.20;15.32;;;;;;;9.74;84.37;101168.38;1775058;80;25523;-50
2023/04/18 06:48:22;;;;;;;29.95;15.32;;;;;;;9.75;84.26;101160.51;1753706;80;25481;-50
2023/04/18 06:50:48;;;;;;;27.45;13.83;;;;;;;9.81;84.29;101164.00;1775166;80;26025;-51
2023/04/18 06:53:14;;;;;;;29.15;15.00;;;;;;;9.84;84.32;101167.47;1775199;80;25591;-53
2023/04/18 06:55:41;;;;;;;27.13;14.85;;;;;;;9.85;83.99;101160.43;1775198;80;27459;-49
2023/04/18 06:58:08;;;;;;;29.52;16.05;;;;;;;9.89;84.10;101160.66;1775040;80;25437;-51
2023/04/18 07:00:35;;;;;;;26.93;14.68;;;;;;;9.95;84.19;101163.60;1775155;80;25515;-54
2023/04/18 07:03:08;;;;;;;25.40;14.55;;;;;;;10.00;84.22;101163.55;1775156;80;25611;-54
2023/04/18 07:05:30;;;;;;;27.58;14.60;;;;;;;10.07;84.22;101164.03;1752906;80;25540;-51
2023/04/18 07:07:56;;;;;;;28.10;15.15;;;;;;;10.18;84.30;101162.06;1775207;80;27419;-53
2023/04/18 07:10:22;;;;;;;32.35;16.60;;;;;;;10.32;84.76;101160.87;1775107;80;25818;-53
2023/04/18 07:12:48;;;;;;;26.10;15.58;;;;;;;10.44;84.27;101155.87;1753574;80;25458;-51
2023/04/18 07:15:14;;;;;;;25.20;14.45;;;;;;;10.53;83.66;101156.59;1775127;80;25554;-51
2023/04/18 07:17:41;;;;;;;24.82;14.13;;;;;;;10.63;83.64;101161.34;1742817;80;25573;-50
2023/04/18 07:20:10;;;;;;;24.35;14.05;;;;;;;10.73;82.98;101154.22;1742572;80;28322;-50
2023/04/18 07:22:36;;;;;;;29.40;15.83;;;;;;;10.82;82.62;101160.03;1775240;80;34659;-51
2023/04/18 07:25:04;;;;;;;26.30;15.20;;;;;;;10.94;82.95;101160.17;1775189;80;25421;-53
2023/04/18 07:27:30;;;;;;;27.65;14.80;;;;;;;11.06;82.52;101154.34;1775189;80;25433;-54
2023/04/18 07:29:56;;;;;;;23.75;14.47;;;;;;;11.21;82.43;101152.22;1775231;80;25559;-53
2023/04/18 07:32:22;;;;;;;28.25;16.17;;;;;;;11.37;82.70;101145.23;1775236;80;27540;-52
2023/04/18 07:34:50;;;;;;;28.07;15.28;;;;;;;11.56;82.50;101155.53;1775076;80;25423;-54
2023/04/18 07:37:17;;;;;;;24.25;14.73;;;;;;;11.72;81.94;101160.70;1775131;80;25566;-51
2023/04/18 07:39:44;;;;;;;25.52;15.75;;;;;;;11.86;81.09;101170.24;1847652;77;26100;-50
2023/04/18 07:42:10;;;;;;;25.43;15.63;;;;;;;12.01;81.09;101167.87;1847565;77;25439;-51
2023/04/18 07:44:36;;;;;;;22.10;13.65;;;;;;;12.18;80.61;101176.80;1847530;77;29711;-50
2023/04/18 07:47:03;;;;;;;30.92;14.93;;;;;;;12.32;80.24;101170.27;1775486;80;25405;-50
2023/04/18 07:49:29;;;;;;;24.52;13.72;;;;;;;12.48;79.32;101183.56;1775357;80;25412;-54
2023/04/18 07:51:55;;;;;;;25.05;14.20;;;;;;;12.61;79.09;101176.55;1807110;79;25556;-50
2023/04/18 07:54:22;;;;;;;23.47;13.75;;;;;;;12.84;79.45;101178.26;1775286;80;25391;-51
2023/04/18 07:56:48;;;;;;;52.15;47.40;;;;;;;13.11;79.40;101172.56;1807126;79;27524;-50
2023/04/18 07:59:14;;;;;;;73.72;67.47;;;;;;;13.52;79.65;101170.31;1775228;80;25390;-51
2023/04/18 08:01:40;;;;;;;24.55;14.07;;;;;;;14.07;79.13;101170.62;1807138;79;25402;-53
2023/04/18 08:04:06;;;;;;;23.42;15.18;;;;;;;14.61;78.20;101165.69;1775349;80;25611;-54
2023/04/18 08:06:33;;;;;;;26.40;14.23;;;;;;;15.30;78.29;101166.41;1783205;79;25580;-52
2023/04/18 08:09:04;;;;;;;22.37;13.68;;;;;;;16.09;77.00;101169.92;1775367;80;29697;-55
2023/04/18 08:11:28;;;;;;;23.05;15.13;;;;;;;16.71;74.39;101173.22;1775194;80;25877;-56
2023/04/18 08:13:54;;;;;;;25.70;14.55;;;;;;;17.17;72.90;101170.95;1831516;77;25411;-53
2023/04/18 08:16:20;;;;;;;21.87;15.80;;;;;;;17.80;72.48;101174.23;1847475;77;25490;-55
2023/04/18 08:18:46;;;;;;;19.42;14.03;;;;;;;18.44;70.19;101163.92;1775382;80;25572;-56
2023/04/18 08:21:13;;;;;;;24.82;15.48;;;;;;;18.85;68.54;101170.34;1775273;80;27457;-56
2023/04/18 08:23:39;;;;;;;18.25;14.07;;;;;;;19.15;66.72;101167.32;1807034;79;25624;-54
2023/04/18 08:26:06;;;;;;;21.87;14.23;;;;;;;19.22;64.72;101172.46;1775246;80;25512;-55
2023/04/18 08:28:32;;;;;;;20.08;13.78;;;;;;;19.30;63.12;101167.97;1807090;79;25506;-55
2023/04/18 08:30:59;;;;;;;19.27;13.58;;;;;;;19.45;63.02;101173.30;1753743;80;25629;-55
2023/04/18 08:33:26;;;;;;;20.40;13.98;;;;;;;19.49;61.62;101170.66;1768094;81;27339;-54
2023/04/18 08:35:53;;;;;;;17.37;12.80;;;;;;;19.48;60.90;101171.80;1791907;80;25440;-54
2023/04/18 08:38:20;;;;;;;19.27;13.45;;;;;;;19.45;60.66;101172.52;1755984;80;25737;-53
2023/04/18 08:40:47;;;;;;;21.57;13.80;;;;;;;19.39;60.08;101165.91;1807073;79;25541;-54
2023/04/18 08:43:14;;;;;;;18.25;13.60;;;;;;;19.36;59.78;101167.17;1775317;80;25452;-55
2023/04/18 08:45:43;;;;;;;19.00;13.35;;;;;;;19.42;59.50;101171.25;1807177;79;27473;-54
2023/04/18 08:48:15;;;;;;;19.67;15.03;;;;;;;19.49;59.18;101165.17;1775175;80;25676;-52
2023/04/18 08:50:42;;;;;;;20.27;12.78;;;;;;;19.63;58.88;101162.03;1775339;80;25605;-55
2023/04/18 08:53:10;;;;;;;17.55;13.70;;;;;;;20.07;59.29;101157.36;1775263;80;25550;-52
2023/04/18 08:55:37;;;;;;;18.60;13.75;;;;;;;20.24;57.74;101154.06;1775360;80;25569;-52
2023/04/18 08:58:05;;;;;;;21.87;13.58;;;;;;;20.35;57.89;101146.90;1775353;80;27435;-52
2023/04/18 09:00:32;;;;;;;15.72;13.35;;;;;;;20.39;56.89;101144.23;1775328;80;34888;-53
2023/04/18 09:03:01;;;;;;;19.95;12.95;;;;;;;20.29;56.45;101154.59;1775284;80;25448;-55
2023/04/18 09:05:28;;;;;;;16.95;13.20;;;;;;;20.25;56.15;101152.34;1775478;80;25403;-52
2023/04/18 09:07:56;;;;;;;19.32;12.68;;;;;;;20.20;55.68;101155.35;1775307;80;25475;-54
2023/04/18 09:10:32;;;;;;;17.35;12.43;;;;;;;20.10;55.10;101147.05;1775285;80;27490;-52
2023/04/18 09:13:02;;;;;;;15.15;11.60;;;;;;;20.01;54.69;101149.77;1775169;80;25582;-51
2023/04/18 09:15:30;;;;;;;;;;;;;;;20.00;55.17;101150.32;1777958;80;25430;-53
2023/04/18 09:18:01;;;;;;;17.05;12.50;;;;;;;20.10;54.68;101151.76;1775260;80;25541;-54
2023/04/18 09:20:39;;;;;;;17.27;12.40;;;;;;;20.15;54.86;101142.67;1753460;80;25625;-53
2023/04/18 09:23:09;;;;;;;15.18;12.35;;;;;;;20.27;54.78;101147.88;1746401;80;27747;-52
2023/04/18 09:25:45;;;;;;;18.48;12.33;;;;;;;20.42;54.43;101138.03;1775203;80;25436;-53
2023/04/18 09:28:32;;;;;;;14.73;11.70;;;;;;;20.62;54.70;101139.73;1746320;80;25616;-53
2023/04/18 09:31:12;;;;;;;15.00;11.95;;;;;;;20.94;53.82;101145.73;1775204;80;25586;-52
2023/04/18 09:33:43;;;;;;;19.87;12.05;;;;;;;20.90;52.53;101140.94;1775181;80;25401;-53
2023/04/18 09:36:26;;;;;;;16.87;11.70;;;;;;;20.91;51.98;101145.88;1775203;80;27547;-54
2023/04/18 09:38:54;;;;;;;15.80;11.60;;;;;;;21.00;52.22;101135.47;1775110;80;25970;-53
2023/04/18 09:41:21;;;;;;;15.88;11.65;;;;;;;21.24;52.47;101137.14;1775232;80;25449;-52
2023/04/18 09:43:49;;;;;;;14.50;11.80;;;;;;;21.57;52.13;101135.07;1775165;80;25613;-53
2023/04/18 09:46:21;;;;;;;16.52;11.25;;;;;;;21.89;51.60;101136.27;1775356;80;25488;-55
2023/04/18 09:48:47;;;;;;;17.17;10.95;;;;;;;22.17;50.66;101132.63;1775102;80;28132;-54
2023/04/18 09:51:16;;;;;;;16.80;11.33;;;;;;;22.41;51.04;101134.00;1775156;80;25554;-54
2023/04/18 09:53:46;;;;;;;15.20;11.03;;;;;;;22.68;48.71;101134.25;1753625;80;25483;-55
2023/04/18 09:56:17;;;;;;;14.73;10.00;;;;;;;22.44;48.66;101134.65;1775304;80;25573;-54
2023/04/18 09:58:46;;;;;;;16.05;10.45;;;;;;;22.63;49.11;101128.23;1774525;80;25536;-53
2023/04/18 10:01:12;;;;;;;13.62;10.05;;;;;;;22.91;48.28;101126.48;1775344;80;27469;-54
2023/04/18 10:03:46;;;;;;;14.90;10.43;;;;;;;22.85;47.08;101131.54;1775124;80;25868;-51
2023/04/18 10:06:16;;;;;;;13.10;9.55;;;;;;;22.58;46.52;101130.75;1775288;80;25463;-53
2023/04/18 10:08:45;;;;;;;16.02;10.03;;;;;;;22.41;46.74;101133.44;1775319;80;25468;-50
2023/04/18 10:11:12;;;;;;;14.73;9.85;;;;;;;22.22;46.10;101126.03;1775367;80;25530;-52
2023/04/18 10:13:42;;;;;;;13.10;10.15;;;;;;;22.05;46.55;101136.14;1775161;80;27550;-51
2023/04/18 10:16:10;;;;;;;16.50;10.35;;;;;;;21.80;46.17;101127.66;1775109;80;25437;-54
2023/04/18 10:18:36;;;;;;;15.72;11.00;;;;;;;21.58;46.33;101130.58;1753443;80;25563;-53
2023/04/18 10:21:05;;;;;;;15.25;11.45;;;;;;;21.40;46.73;101134.91;1753371;80;25556;-52
2023/04/18 10:23:36;;;;;;;13.83;11.15;;;;;;;21.26;46.86;101126.57;1775358;80;32401;-51
2023/04/18 10:26:06;;;;;;;15.75;11.30;;;;;;;21.08;47.11;101124.84;1775250;80;27508;-50
2023/04/18 10:28:56;;;;;;;17.45;10.72;;;;;;;20.93;47.38;101122.16;1753210;80;25587;-51
2023/04/18 10:31:28;;;;;;;15.18;10.55;;;;;;;20.84;47.26;101118.20;1775205;80;25551;-53
2023/04/18 10:34:00;;;;;;;16.42;10.30;;;;;;;20.84;47.80;101112.70;1775172;80;25492;-52
2023/04/18 10:36:27;;;;;;;18.73;10.68;;;;;;;21.05;47.85;101120.05;1775202;80;25362;-52
2023/04/18 10:39:07;;;;;;;16.77;11.28;;;;;;;21.54;47.81;101117.34;1775243;80;27481;-49
2023/04/18 10:41:33;;;;;;;10.98;9.40;;;;;;;22.13;48.22;101111.09;1767928;80;25573;-57
2023/04/18 10:44:16;;;;;;;16.23;10.85;;;;;;;22.83;47.57;101098.59;1744716;82;25207;-54
2023/04/18 10:46:54;;;;;;;16.80;11.18;;;;;;;23.22;46.25;101110.16;1744590;82;26175;-56
2023/04/18 10:49:27;;;;;;;22.70;16.82;;;;;;;23.19;44.44;101110.93;1775413;80;25570;-52
2023/04/18 10:52:00;;;;;;;63.08;51.90;;;;;;;22.79;43.54;101108.20;1775335;80;28142;-54
2023/04/18 10:54:44;;;;;;;15.83;11.78;;;;;;;22.60;44.21;101094.55;1753333;80;25481;-49
2023/04/18 10:57:12;;;;;;;14.00;11.70;;;;;;;22.41;44.04;101092.66;1775189;80;25395;-50
2023/04/18 10:59:42;;;;;;;15.28;12.07;;;;;;;22.22;44.18;101097.09;1775086;80;27659;-50
2023/04/18 11:02:31;;;;;;;16.73;11.50;;;;;;;22.18;44.27;101090.13;1738057;82;25464;-53
2023/04/18 11:05:03;;;;;;;14.78;10.90;;;;;;;22.12;44.60;101088.08;1775344;80;29082;-49
2023/04/18 11:07:39;;;;;;;15.63;12.35;;;;;;;21.96;44.07;101088.19;1775098;80;25773;-54
2023/04/18 11:10:08;;;;;;;13.43;11.10;;;;;;;21.82;44.08;101088.73;1753283;80;25777;-53
2023/04/18 11:12:38;;;;;;;14.83;11.93;;;;;;;21.62;44.23;101094.30;1775222;80;25548;-50
2023/04/18 11:15:14;;;;;;;15.95;11.53;;;;;;;21.60;44.57;101085.59;1775389;80;25626;-50
2023/04/18 11:17:41;;;;;;;15.72;10.98;;;;;;;21.68;44.94;101076.11;1775366;80;27468;-50
2023/04/18 11:20:13;;;;;;;15.58;11.50;;;;;;;21.61;44.38;101079.52;1775275;80;25388;-49